Wickhaven, Pennsylvania
Current Conditions -  °F | °C
As of 4:53 PM on Friday 24 Oct 2014 (Local Time) from KAGC Reporting Station
Clear Clear  
Wind Chill: 59°   Ceiling: Unl
Heat Index: 59°   Visibility: 10mi
Dew Point: 34°   Wind: 8mph
Humidity: 39%   Direction: 280°W
Pressure: 30"   Gusts: NA
Location:  40.12°N, 79.77°W
Report Text: KAGC 242053Z 28007KT 10SM CLR 15/01 A3000 RMK AO2 SLP165 T01500011 56011
Loading
Personal Weather Stations






























Interactive Weather Map
Tropical Storm Tracking
New forecast layout! Learn more

10-Day Weather Forecast

Advertisements
Track Severe Weather on mobile